sensor_id;sensor_type;location;lat;lon;timestamp;pressure;altitude;pressure_sealevel;temperature;humidity
13407;BME280;6774;48.208;10.766;2023-05-11T00:01:10;95386.94;;;11.24;91.16
13407;BME280;6774;48.208;10.766;2023-05-11T00:03:39;95387.94;;;11.17;91.32
13407;BME280;6774;48.208;10.766;2023-05-11T00:06:07;95380.50;;;11.27;91.25
13407;BME280;6774;48.208;10.766;2023-05-11T00:08:35;95381.09;;;11.29;91.08
13407;BME280;6774;48.208;10.766;2023-05-11T00:11:06;95381.97;;;11.36;90.54
13407;BME280;6774;48.208;10.766;2023-05-11T00:13:34;95381.75;;;11.03;91.41
13407;BME280;6774;48.208;10.766;2023-05-11T00:16:02;95379.00;;;11.18;91.00
13407;BME280;6774;48.208;10.766;2023-05-11T00:18:30;95378.75;;;11.13;91.36
13407;BME280;6774;48.208;10.766;2023-05-11T00:20:59;95368.41;;;11.11;90.75
13407;BME280;6774;48.208;10.766;2023-05-11T00:23:27;95384.72;;;11.21;90.57
13407;BME280;6774;48.208;10.766;2023-05-11T00:25:55;95374.91;;;11.08;90.54
13407;BME280;6774;48.208;10.766;2023-05-11T00:28:22;95365.56;;;11.13;90.98
13407;BME280;6774;48.208;10.766;2023-05-11T00:30:54;95369.16;;;11.05;91.54
13407;BME280;6774;48.208;10.766;2023-05-11T00:33:22;95365.75;;;11.11;90.91
13407;BME280;6774;48.208;10.766;2023-05-11T00:35:50;95368.44;;;11.18;90.92
13407;BME280;6774;48.208;10.766;2023-05-11T00:38:19;95363.53;;;11.15;90.88
13407;BME280;6774;48.208;10.766;2023-05-11T00:40:47;95367.66;;;11.24;90.28
13407;BME280;6774;48.208;10.766;2023-05-11T00:43:15;95365.66;;;11.26;90.07
13407;BME280;6774;48.208;10.766;2023-05-11T00:45:43;95362.72;;;11.14;90.60
13407;BME280;6774;48.208;10.766;2023-05-11T00:48:13;95357.53;;;11.27;90.15
13407;BME280;6774;48.208;10.766;2023-05-11T00:50:41;95365.66;;;11.32;90.16
13407;BME280;6774;48.208;10.766;2023-05-11T00:53:09;95356.72;;;11.27;90.14
13407;BME280;6774;48.208;10.766;2023-05-11T00:55:38;95363.53;;;11.15;90.34
13407;BME280;6774;48.208;10.766;2023-05-11T00:58:06;95351.59;;;11.19;90.43
13407;BME280;6774;48.208;10.766;2023-05-11T01:00:34;95361.53;;;11.17;90.21
13407;BME280;6774;48.208;10.766;2023-05-11T01:03:03;95370.47;;;11.16;90.42
13407;BME280;6774;48.208;10.766;2023-05-11T01:05:37;95364.41;;;11.22;90.07
13407;BME280;6774;48.208;10.766;2023-05-11T01:08:11;95364.78;;;11.19;90.39
13407;BME280;6774;48.208;10.766;2023-05-11T01:10:47;95363.06;;;11.04;90.35
13407;BME280;6774;48.208;10.766;2023-05-11T01:13:18;95367.00;;;10.87;90.62
13407;BME280;6774;48.208;10.766;2023-05-11T01:15:50;95362.25;;;11.04;90.07
13407;BME280;6774;48.208;10.766;2023-05-11T01:18:25;95359.66;;;11.10;90.13
13407;BME280;6774;48.208;10.766;2023-05-11T01:21:01;95367.50;;;10.97;90.34
13407;BME280;6774;48.208;10.766;2023-05-11T01:26:48;95360.88;;;11.08;89.75
13407;BME280;6774;48.208;10.766;2023-05-11T01:29:43;95355.41;;;11.09;89.65
13407;BME280;6774;48.208;10.766;2023-05-11T01:32:17;95348.63;;;11.00;89.87
13407;BME280;6774;48.208;10.766;2023-05-11T01:34:51;95364.19;;;11.17;89.23
13407;BME280;6774;48.208;10.766;2023-05-11T01:37:21;95354.44;;;11.17;89.41
13407;BME280;6774;48.208;10.766;2023-05-11T01:39:51;95357.47;;;11.21;89.09
13407;BME280;6774;48.208;10.766;2023-05-11T01:42:27;95365.59;;;11.19;89.28
13407;BME280;6774;48.208;10.766;2023-05-11T01:44:58;95355.84;;;11.20;88.77
13407;BME280;6774;48.208;10.766;2023-05-11T01:47:29;95364.31;;;11.08;88.96
13407;BME280;6774;48.208;10.766;2023-05-11T01:49:59;95355.41;;;11.09;89.09
13407;BME280;6774;48.208;10.766;2023-05-11T01:52:30;95357.78;;;11.04;89.28
13407;BME280;6774;48.208;10.766;2023-05-11T01:55:01;95350.50;;;11.06;89.24
13407;BME280;6774;48.208;10.766;2023-05-11T01:57:30;95354.13;;;10.99;89.57
13407;BME280;6774;48.208;10.766;2023-05-11T01:59:59;95357.03;;;11.10;88.91
13407;BME280;6774;48.208;10.766;2023-05-11T02:02:30;95359.25;;;11.14;88.60
13407;BME280;6774;48.208;10.766;2023-05-11T02:04:59;95357.06;;;11.17;88.59
13407;BME280;6774;48.208;10.766;2023-05-11T02:07:30;95358.25;;;11.15;89.03
13407;BME280;6774;48.208;10.766;2023-05-11T02:09:59;95346.06;;;11.14;88.90
13407;BME280;6774;48.208;10.766;2023-05-11T02:12:28;95355.41;;;11.09;89.15
13407;BME280;6774;48.208;10.766;2023-05-11T02:14:57;95364.09;;;11.03;89.07
13407;BME280;6774;48.208;10.766;2023-05-11T02:17:27;95356.59;;;11.07;88.55
13407;BME280;6774;48.208;10.766;2023-05-11T02:19:59;95362.72;;;11.14;88.84
13407;BME280;6774;48.208;10.766;2023-05-11T02:22:29;95355.00;;;11.13;88.66
13407;BME280;6774;48.208;10.766;2023-05-11T02:24:58;95357.03;;;11.10;89.05
13407;BME280;6774;48.208;10.766;2023-05-11T02:27:26;95361.88;;;11.07;89.15
13407;BME280;6774;48.208;10.766;2023-05-11T02:29:56;95363.94;;;11.11;89.33
13407;BME280;6774;48.208;10.766;2023-05-11T02:32:25;95354.53;;;11.02;89.44
13407;BME280;6774;48.208;10.766;2023-05-11T02:34:59;95352.16;;;11.14;89.41
13407;BME280;6774;48.208;10.766;2023-05-11T02:37:29;95353.75;;;11.08;89.37
13407;BME280;6774;48.208;10.766;2023-05-11T02:40:04;95351.13;;;11.08;89.53
13407;BME280;6774;48.208;10.766;2023-05-11T02:42:35;95345.03;;;11.08;89.73
13407;BME280;6774;48.208;10.766;2023-05-11T02:45:07;95352.13;;;11.07;89.81
13407;BME280;6774;48.208;10.766;2023-05-11T02:47:38;95341.13;;;11.04;89.83
13407;BME280;6774;48.208;10.766;2023-05-11T02:50:12;95342.16;;;11.03;90.07
13407;BME280;6774;48.208;10.766;2023-05-11T02:52:44;95333.25;;;11.10;90.13
13407;BME280;6774;48.208;10.766;2023-05-11T02:55:14;95343.66;;;11.19;89.33
13407;BME280;6774;48.208;10.766;2023-05-11T02:57:44;95343.66;;;11.19;89.46
13407;BME280;6774;48.208;10.766;2023-05-11T03:00:12;95344.06;;;11.22;88.45
13407;BME280;6774;48.208;10.766;2023-05-11T03:02:40;95348.53;;;11.22;88.98
13407;BME280;6774;48.208;10.766;2023-05-11T03:05:08;95349.81;;;11.26;88.31
13407;BME280;6774;48.208;10.766;2023-05-11T03:07:38;95340.81;;;11.20;88.16
13407;BME280;6774;48.208;10.766;2023-05-11T03:10:07;95342.03;;;11.18;88.48
13407;BME280;6774;48.208;10.766;2023-05-11T03:12:38;95344.06;;;11.16;88.74
13407;BME280;6774;48.208;10.766;2023-05-11T03:15:07;95335.75;;;11.19;88.94
13407;BME280;6774;48.208;10.766;2023-05-11T03:17:39;95342.84;;;11.18;89.06
13407;BME280;6774;48.208;10.766;2023-05-11T03:20:12;95341.44;;;11.22;88.75
13407;BME280;6774;48.208;10.766;2023-05-11T03:22:41;95339.00;;;11.21;88.61
13407;BME280;6774;48.208;10.766;2023-05-11T03:25:11;95335.13;;;11.17;88.76
13407;BME280;6774;48.208;10.766;2023-05-11T03:27:40;95334.31;;;11.23;88.46
13407;BME280;6774;48.208;10.766;2023-05-11T03:30:11;95339.59;;;11.23;88.63
13407;BME280;6774;48.208;10.766;2023-05-11T03:32:43;95333.94;;;11.26;88.61
13407;BME280;6774;48.208;10.766;2023-05-11T03:35:11;95343.06;;;11.23;88.71
13407;BME280;6774;48.208;10.766;2023-05-11T03:37:40;95334.72;;;11.20;88.67
13407;BME280;6774;48.208;10.766;2023-05-11T03:40:11;95335.53;;;11.20;89.08
13407;BME280;6774;48.208;10.766;2023-05-11T03:42:52;95326.19;;;11.18;89.05
13407;BME280;6774;48.208;10.766;2023-05-11T03:45:22;95327.78;;;11.12;89.39
13407;BME280;6774;48.208;10.766;2023-05-11T03:47:52;95326.41;;;11.23;89.43
13407;BME280;6774;48.208;10.766;2023-05-11T03:50:21;95325.78;;;11.21;88.99
13407;BME280;6774;48.208;10.766;2023-05-11T03:52:49;95336.75;;;11.24;88.83
13407;BME280;6774;48.208;10.766;2023-05-11T03:55:21;95325.00;;;11.27;88.72
13407;BME280;6774;48.208;10.766;2023-05-11T03:57:49;95320.91;;;11.24;88.64
13407;BME280;6774;48.208;10.766;2023-05-11T04:00:18;95326.03;;;11.26;88.67
13407;BME280;6774;48.208;10.766;2023-05-11T04:02:46;95320.75;;;11.26;89.08
13407;BME280;6774;48.208;10.766;2023-05-11T04:05:14;95320.75;;;11.26;89.04
13407;BME280;6774;48.208;10.766;2023-05-11T04:07:44;95323.00;;;11.29;89.09
13407;BME280;6774;48.208;10.766;2023-05-11T04:10:12;95319.34;;;11.30;88.80
13407;BME280;6774;48.208;10.766;2023-05-11T04:12:41;95316.06;;;11.28;88.79
13407;BME280;6774;48.208;10.766;2023-05-11T04:15:09;95321.34;;;11.28;88.87
13407;BME280;6774;48.208;10.766;2023-05-11T04:17:37;95313.63;;;11.26;89.18
13407;BME280;6774;48.208;10.766;2023-05-11T04:20:06;95319.28;;;11.23;89.29
13407;BME280;6774;48.208;10.766;2023-05-11T04:22:34;95308.56;;;11.25;88.86
13407;BME280;6774;48.208;10.766;2023-05-11T04:25:02;95314.81;;;11.24;89.28
13407;BME280;6774;48.208;10.766;2023-05-11T04:27:31;95312.81;;;11.26;89.34
13407;BME280;6774;48.208;10.766;2023-05-11T04:30:00;95311.81;;;11.27;88.93
13407;BME280;6774;48.208;10.766;2023-05-11T04:32:28;95321.75;;;11.25;89.42
13407;BME280;6774;48.208;10.766;2023-05-11T04:34:56;95315.22;;;11.21;89.43
13407;BME280;6774;48.208;10.766;2023-05-11T04:37:27;95320.75;;;11.26;89.10
13407;BME280;6774;48.208;10.766;2023-05-11T04:39:56;95311.19;;;11.25;89.64
13407;BME280;6774;48.208;10.766;2023-05-11T04:42:23;95314.44;;;11.27;89.63
13407;BME280;6774;48.208;10.766;2023-05-11T04:44:53;95314.81;;;11.24;89.13
13407;BME280;6774;48.208;10.766;2023-05-11T04:47:23;95321.75;;;11.25;88.95
13407;BME280;6774;48.208;10.766;2023-05-11T04:49:50;95308.72;;;11.23;88.98
13407;BME280;6774;48.208;10.766;2023-05-11T04:52:18;95317.28;;;11.25;88.80
13407;BME280;6774;48.208;10.766;2023-05-11T04:54:48;95310.34;;;11.24;89.37
13407;BME280;6774;48.208;10.766;2023-05-11T04:57:15;95315.63;;;11.18;89.69
13407;BME280;6774;48.208;10.766;2023-05-11T04:59:45;95319.28;;;11.17;89.91
13407;BME280;6774;48.208;10.766;2023-05-11T05:02:13;95316.47;;;11.25;89.11
13407;BME280;6774;48.208;10.766;2023-05-11T05:04:42;95321.75;;;11.25;89.20
13407;BME280;6774;48.208;10.766;2023-05-11T05:07:09;95323.19;;;11.27;89.16
13407;BME280;6774;48.208;10.766;2023-05-11T05:09:38;95321.94;;;11.23;88.64
13407;BME280;6774;48.208;10.766;2023-05-11T05:12:07;95316.03;;;11.21;89.14
13407;BME280;6774;48.208;10.766;2023-05-11T05:14:34;95324.94;;;11.14;89.18
13407;BME280;6774;48.208;10.766;2023-05-11T05:17:04;95315.22;;;11.21;89.00
13407;BME280;6774;48.208;10.766;2023-05-11T05:19:32;95321.34;;;11.28;88.97
13407;BME280;6774;48.208;10.766;2023-05-11T05:22:01;95315.06;;;11.29;89.30
13407;BME280;6774;48.208;10.766;2023-05-11T05:24:30;95317.88;;;11.21;89.32
13407;BME280;6774;48.208;10.766;2023-05-11T05:26:57;95324.22;;;11.33;88.72
13407;BME280;6774;48.208;10.766;2023-05-11T05:29:25;95315.31;;;11.34;89.06
13407;BME280;6774;48.208;10.766;2023-05-11T05:31:53;95326.66;;;11.28;89.30
13407;BME280;6774;48.208;10.766;2023-05-11T05:34:23;95317.09;;;11.33;89.04
13407;BME280;6774;48.208;10.766;2023-05-11T05:36:51;95323.44;;;11.39;89.00
13407;BME280;6774;48.208;10.766;2023-05-11T05:39:20;95320.19;;;11.37;89.11
13407;BME280;6774;48.208;10.766;2023-05-11T05:41:48;95319.78;;;11.40;89.20
13407;BME280;6774;48.208;10.766;2023-05-11T05:44:16;95327.34;;;11.43;89.02
13407;BME280;6774;48.208;10.766;2023-05-11T05:46:44;95330.59;;;11.45;88.85
13407;BME280;6774;48.208;10.766;2023-05-11T05:49:12;95326.06;;;11.39;88.82
13407;BME280;6774;48.208;10.766;2023-05-11T05:51:41;95334.41;;;11.43;88.84
13407;BME280;6774;48.208;10.766;2023-05-11T05:54:08;95334.00;;;11.39;89.07
13407;BME280;6774;48.208;10.766;2023-05-11T05:56:38;95338.44;;;11.32;89.21
13407;BME280;6774;48.208;10.766;2023-05-11T05:59:06;95337.69;;;11.45;89.09
13407;BME280;6774;48.208;10.766;2023-05-11T06:01:36;95330.59;;;11.45;88.73
13407;BME280;6774;48.208;10.766;2023-05-11T06:04:09;95325.06;;;11.40;88.18
13407;BME280;6774;48.208;10.766;2023-05-11T06:06:37;95327.38;;;11.56;87.84
13407;BME280;6774;48.208;10.766;2023-05-11T06:09:06;95332.81;;;11.48;87.88
13407;BME280;6774;48.208;10.766;2023-05-11T06:11:34;95331.44;;;11.52;87.91
13407;BME280;6774;48.208;10.766;2023-05-11T06:14:05;95334.84;;;11.46;88.53
13407;BME280;6774;48.208;10.766;2023-05-11T06:16:33;95332.41;;;11.45;88.98
13407;BME280;6774;48.208;10.766;2023-05-11T06:19:01;95333.66;;;11.55;88.86
13407;BME280;6774;48.208;10.766;2023-05-11T06:21:28;95326.97;;;11.53;88.52
13407;BME280;6774;48.208;10.766;2023-05-11T06:23:57;95335.28;;;11.56;88.44
13407;BME280;6774;48.208;10.766;2023-05-11T06:26:28;95341.34;;;11.50;87.53
13407;BME280;6774;48.208;10.766;2023-05-11T06:28:55;95329.41;;;11.54;86.74
13407;BME280;6774;48.208;10.766;2023-05-11T06:31:25;95332.81;;;11.48;87.08
13407;BME280;6774;48.208;10.766;2023-05-11T06:33:53;95338.56;;;11.58;86.69
13407;BME280;6774;48.208;10.766;2023-05-11T06:36:24;95333.22;;;11.45;87.05
13407;BME280;6774;48.208;10.766;2023-05-11T06:38:51;95335.25;;;11.43;86.61
13407;BME280;6774;48.208;10.766;2023-05-11T06:41:20;95332.00;;;11.48;87.62
13407;BME280;6774;48.208;10.766;2023-05-11T06:43:48;95329.78;;;11.51;87.28
13407;BME280;6774;48.208;10.766;2023-05-11T06:46:28;95336.53;;;11.60;87.01
13407;BME280;6774;48.208;10.766;2023-05-11T06:48:56;95332.06;;;11.67;86.78
13407;BME280;6774;48.208;10.766;2023-05-11T06:51:24;95336.56;;;11.74;87.14
13407;BME280;6774;48.208;10.766;2023-05-11T06:53:51;95329.13;;;11.84;87.27
13407;BME280;6774;48.208;10.766;2023-05-11T06:56:19;95327.31;;;11.91;87.13
13407;BME280;6774;48.208;10.766;2023-05-11T06:58:48;95334.44;;;11.90;86.68
13407;BME280;6774;48.208;10.766;2023-05-11T07:01:15;95327.50;;;11.89;86.87
13407;BME280;6774;48.208;10.766;2023-05-11T07:03:44;95325.03;;;11.88;86.32
13407;BME280;6774;48.208;10.766;2023-05-11T07:06:14;95332.16;;;11.81;86.51
13407;BME280;6774;48.208;10.766;2023-05-11T07:08:41;95329.13;;;11.84;86.52
13407;BME280;6774;48.208;10.766;2023-05-11T07:11:09;95328.94;;;11.92;85.94
13407;BME280;6774;48.208;10.766;2023-05-11T07:13:38;95330.38;;;12.01;85.99
13407;BME280;6774;48.208;10.766;2023-05-11T07:16:06;95329.38;;;12.09;85.03
13407;BME280;6774;48.208;10.766;2023-05-11T07:18:34;95333.44;;;12.11;85.35
13407;BME280;6774;48.208;10.766;2023-05-11T07:21:03;95326.53;;;12.10;85.55
13407;BME280;6774;48.208;10.766;2023-05-11T07:23:31;95330.56;;;12.06;85.69
13407;BME280;6774;48.208;10.766;2023-05-11T07:25:59;95331.03;;;12.16;85.75
13407;BME280;6774;48.208;10.766;2023-05-11T07:28:29;95335.09;;;12.19;85.52
13407;BME280;6774;48.208;10.766;2023-05-11T07:30:56;95335.91;;;12.19;85.89
13407;BME280;6774;48.208;10.766;2023-05-11T07:33:24;95335.50;;;12.29;85.16
13407;BME280;6774;48.208;10.766;2023-05-11T07:35:52;95328.78;;;12.27;84.48
13407;BME280;6774;48.208;10.766;2023-05-11T07:38:21;95329.59;;;12.34;84.28
13407;BME280;6774;48.208;10.766;2023-05-11T07:40:48;95322.88;;;12.38;84.38
13407;BME280;6774;48.208;10.766;2023-05-11T07:43:16;95328.97;;;12.32;83.46
13407;BME280;6774;48.208;10.766;2023-05-11T07:45:44;95331.44;;;12.27;83.93
13407;BME280;6774;48.208;10.766;2023-05-11T07:48:11;95331.19;;;12.15;85.20
13407;BME280;6774;48.208;10.766;2023-05-11T07:50:39;95332.25;;;12.27;84.23
13407;BME280;6774;48.208;10.766;2023-05-11T07:53:08;95339.34;;;12.33;84.66
13407;BME280;6774;48.208;10.766;2023-05-11T07:55:37;95327.97;;;12.46;84.80
13407;BME280;6774;48.208;10.766;2023-05-11T07:58:05;95328.38;;;12.56;85.29
13407;BME280;6774;48.208;10.766;2023-05-11T08:00:33;95331.44;;;12.60;85.26
13407;BME280;6774;48.208;10.766;2023-05-11T08:03:01;95313.13;;;12.71;85.50
13407;BME280;6774;48.208;10.766;2023-05-11T08:05:29;95334.28;;;12.71;83.93
13407;BME280;6774;48.208;10.766;2023-05-11T08:07:58;95327.97;;;12.72;84.12
13407;BME280;6774;48.208;10.766;2023-05-11T08:10:27;95326.34;;;12.71;83.12
13407;BME280;6774;48.208;10.766;2023-05-11T08:12:56;95324.69;;;12.70;83.44
13407;BME280;6774;48.208;10.766;2023-05-11T08:15:23;95333.88;;;12.68;83.71
13407;BME280;6774;48.208;10.766;2023-05-11T08:17:52;95332.63;;;12.70;84.60
13407;BME280;6774;48.208;10.766;2023-05-11T08:20:19;95329.19;;;12.76;83.86
13407;BME280;6774;48.208;10.766;2023-05-11T08:22:47;95325.13;;;12.80;83.34
13407;BME280;6774;48.208;10.766;2023-05-11T08:25:15;95327.34;;;12.84;83.35
13407;BME280;6774;48.208;10.766;2023-05-11T08:27:43;95317.56;;;12.91;83.82
13407;BME280;6774;48.208;10.766;2023-05-11T08:30:13;95319.56;;;13.02;83.68
13407;BME280;6774;48.208;10.766;2023-05-11T08:32:41;95317.09;;;13.07;83.04
13407;BME280;6774;48.208;10.766;2023-05-11T08:35:13;95327.69;;;13.07;83.61
13407;BME280;6774;48.208;10.766;2023-05-11T08:37:40;95310.22;;;12.93;83.96
13407;BME280;6774;48.208;10.766;2023-05-11T08:40:10;95311.84;;;12.94;83.90
13407;BME280;6774;48.208;10.766;2023-05-11T08:42:43;95314.06;;;13.03;84.07
13407;BME280;6774;48.208;10.766;2023-05-11T08:45:14;95319.56;;;13.02;84.32
13407;BME280;6774;48.208;10.766;2023-05-11T08:47:44;95323.22;;;13.21;83.97
13407;BME280;6774;48.208;10.766;2023-05-11T08:50:12;95322.78;;;13.30;83.28
13407;BME280;6774;48.208;10.766;2023-05-11T08:52:40;95319.91;;;13.38;83.42
13407;BME280;6774;48.208;10.766;2023-05-11T08:55:08;95317.81;;;13.54;82.63
13407;BME280;6774;48.208;10.766;2023-05-11T08:57:37;95322.31;;;13.53;81.35
13407;BME280;6774;48.208;10.766;2023-05-11T09:00:06;95315.78;;;13.56;81.37
13407;BME280;6774;48.208;10.766;2023-05-11T09:02:36;95315.31;;;13.65;82.17
13407;BME280;6774;48.208;10.766;2023-05-11T09:05:05;95319.38;;;13.68;81.84
13407;BME280;6774;48.208;10.766;2023-05-11T09:07:35;95322.63;;;13.70;80.11
13407;BME280;6774;48.208;10.766;2023-05-11T09:10:06;95323.41;;;13.77;80.19
13407;BME280;6774;48.208;10.766;2023-05-11T09:12:36;95320.16;;;13.75;80.88
13407;BME280;6774;48.208;10.766;2023-05-11T09:15:05;95316.38;;;13.51;80.96
13407;BME280;6774;48.208;10.766;2023-05-11T09:17:33;95323.16;;;13.85;80.78
13407;BME280;6774;48.208;10.766;2023-05-11T09:20:04;95313.94;;;13.94;80.82
13407;BME280;6774;48.208;10.766;2023-05-11T09:22:34;95310.84;;;13.98;80.45
13407;BME280;6774;48.208;10.766;2023-05-11T09:25:10;95312.63;;;14.10;80.71
13407;BME280;6774;48.208;10.766;2023-05-11T09:27:41;95308.13;;;14.11;79.86
13407;BME280;6774;48.208;10.766;2023-05-11T09:30:11;95317.16;;;14.03;79.21
13407;BME280;6774;48.208;10.766;2023-05-11T09:32:46;95307.91;;;14.12;80.82
13407;BME280;6774;48.208;10.766;2023-05-11T09:35:20;95315.84;;;14.19;79.14
13407;BME280;6774;48.208;10.766;2023-05-11T09:38:03;95310.53;;;14.19;78.96
13407;BME280;6774;48.208;10.766;2023-05-11T09:40:32;95313.44;;;14.11;80.53
13407;BME280;6774;48.208;10.766;2023-05-11T09:43:00;95305.97;;;14.26;79.40
13407;BME280;6774;48.208;10.766;2023-05-11T09:45:38;95301.75;;;14.43;78.92
13407;BME280;6774;48.208;10.766;2023-05-11T09:48:13;95306.03;;;14.51;78.79
13407;BME280;6774;48.208;10.766;2023-05-11T09:50:58;95306.91;;;14.45;77.65
13407;BME280;6774;48.208;10.766;2023-05-11T09:53:33;95304.84;;;14.47;78.02
13407;BME280;6774;48.208;10.766;2023-05-11T09:56:01;95299.47;;;14.22;79.42
13407;BME280;6774;48.208;10.766;2023-05-11T09:58:44;95297.13;;;14.07;77.74
13407;BME280;6774;48.208;10.766;2023-05-11T10:01:12;95295.47;;;14.13;78.82
13407;BME280;6774;48.208;10.766;2023-05-11T10:03:47;95301.78;;;14.12;79.88
13407;BME280;6774;48.208;10.766;2023-05-11T10:06:17;95297.25;;;14.19;79.36
13407;BME280;6774;48.208;10.766;2023-05-11T10:08:46;95299.41;;;14.04;78.77
13407;BME280;6774;48.208;10.766;2023-05-11T10:11:14;95299.13;;;14.12;78.80
13407;BME280;6774;48.208;10.766;2023-05-11T10:13:43;95303.78;;;14.16;79.50
13407;BME280;6774;48.208;10.766;2023-05-11T10:16:12;95295.47;;;14.13;79.45
13407;BME280;6774;48.208;10.766;2023-05-11T10:18:41;95293.84;;;14.12;78.10
13407;BME280;6774;48.208;10.766;2023-05-11T10:21:10;95295.78;;;14.23;77.86
13407;BME280;6774;48.208;10.766;2023-05-11T10:23:40;95300.56;;;14.46;78.53
13407;BME280;6774;48.208;10.766;2023-05-11T10:26:09;95298.00;;;14.58;78.14
13407;BME280;6774;48.208;10.766;2023-05-11T10:28:37;95300.28;;;14.54;76.78
13407;BME280;6774;48.208;10.766;2023-05-11T10:31:05;95289.09;;;14.70;77.60
13407;BME280;6774;48.208;10.766;2023-05-11T10:33:33;95293.41;;;14.90;77.65
13407;BME280;6774;48.208;10.766;2023-05-11T10:36:02;95289.06;;;14.95;77.68
13407;BME280;6774;48.208;10.766;2023-05-11T10:38:29;95287.75;;;15.04;78.41
13407;BME280;6774;48.208;10.766;2023-05-11T10:41:06;95289.59;;;15.04;77.92
13407;BME280;6774;48.208;10.766;2023-05-11T10:43:51;95288.19;;;15.01;76.09
13407;BME280;6774;48.208;10.766;2023-05-11T10:46:36;95287.16;;;15.02;76.57
13407;BME280;6774;48.208;10.766;2023-05-11T10:49:22;95287.69;;;15.11;77.36
13407;BME280;6774;48.208;10.766;2023-05-11T10:52:08;95282.44;;;15.23;78.11
13407;BME280;6774;48.208;10.766;2023-05-11T10:54:54;95286.88;;;15.29;76.60
13407;BME280;6774;48.208;10.766;2023-05-11T10:57:36;95285.03;;;15.29;75.23
13407;BME280;6774;48.208;10.766;2023-05-11T11:03:13;95274.31;;;15.36;74.06
13407;BME280;6774;48.208;10.766;2023-05-11T11:05:41;95278.75;;;15.42;74.15
13407;BME280;6774;48.208;10.766;2023-05-11T11:08:11;95287.69;;;15.48;75.35
13407;BME280;6774;48.208;10.766;2023-05-11T11:10:40;95278.44;;;15.50;75.42
13407;BME280;6774;48.208;10.766;2023-05-11T11:13:12;95282.25;;;15.54;74.96
13407;BME280;6774;48.208;10.766;2023-05-11T11:16:09;95272.06;;;15.51;74.05
13407;BME280;6774;48.208;10.766;2023-05-11T11:18:41;95272.06;;;15.51;74.13
13407;BME280;6774;48.208;10.766;2023-05-11T11:21:09;95282.78;;;15.63;74.64
13407;BME280;6774;48.208;10.766;2023-05-11T11:23:46;95280.06;;;15.70;73.22
13407;BME280;6774;48.208;10.766;2023-05-11T11:26:17;95275.78;;;15.50;72.78
13407;BME280;6774;48.208;10.766;2023-05-11T11:29:09;95275.47;;;15.58;72.33
13407;BME280;6774;48.208;10.766;2023-05-11T11:31:37;95274.00;;;15.62;72.62
13407;BME280;6774;48.208;10.766;2023-05-11T11:34:31;95272.66;;;15.72;73.45
13407;BME280;6774;48.208;10.766;2023-05-11T11:37:02;95275.25;;;15.78;73.74
13407;BME280;6774;48.208;10.766;2023-05-11T11:39:50;95277.34;;;15.88;74.37
13407;BME280;6774;48.208;10.766;2023-05-11T11:42:33;95279.69;;;15.96;74.60
13407;BME280;6774;48.208;10.766;2023-05-11T11:45:30;95276.53;;;15.87;73.95
13407;BME280;6774;48.208;10.766;2023-05-11T11:48:12;95278.63;;;15.85;74.02
13407;BME280;6774;48.208;10.766;2023-05-11T11:50:41;95277.81;;;15.85;73.40
13407;BME280;6774;48.208;10.766;2023-05-11T11:53:11;95276.19;;;15.84;73.23
13407;BME280;6774;48.208;10.766;2023-05-11T11:55:47;95283.59;;;15.82;73.43
13407;BME280;6774;48.208;10.766;2023-05-11T12:01:22;95275.53;;;15.70;75.53
13407;BME280;6774;48.208;10.766;2023-05-11T12:04:08;95271.50;;;15.68;75.75
13407;BME280;6774;48.208;10.766;2023-05-11T12:06:43;95278.44;;;15.69;75.67
13407;BME280;6774;48.208;10.766;2023-05-11T12:09:17;95273.97;;;15.81;76.49
13407;BME280;6774;48.208;10.766;2023-05-11T12:11:45;95280.59;;;15.90;76.83
13407;BME280;6774;48.208;10.766;2023-05-11T12:14:14;95272.03;;;15.88;75.88
13407;BME280;6774;48.208;10.766;2023-05-11T12:16:58;95278.72;;;15.79;74.72
13407;BME280;6774;48.208;10.766;2023-05-11T12:19:26;95277.81;;;15.85;74.70
13407;BME280;6774;48.208;10.766;2023-05-11T12:21:54;95276.94;;;15.91;74.85
13407;BME280;6774;48.208;10.766;2023-05-11T12:24:22;95278.09;;;15.95;74.73
13407;BME280;6774;48.208;10.766;2023-05-11T12:26:54;95275.56;;;16.00;74.97
13407;BME280;6774;48.208;10.766;2023-05-11T12:29:23;95284.22;;;15.96;74.36
13407;BME280;6774;48.208;10.766;2023-05-11T12:31:53;95281.88;;;15.87;73.07
13407;BME280;6774;48.208;10.766;2023-05-11T12:34:21;95276.63;;;15.81;73.66
13407;BME280;6774;48.208;10.766;2023-05-11T12:36:51;95281.56;;;15.66;73.71
13407;BME280;6774;48.208;10.766;2023-05-11T12:39:26;95280.56;;;15.60;73.87
13407;BME280;6774;48.208;10.766;2023-05-11T12:41:57;95280.56;;;15.60;73.60
13407;BME280;6774;48.208;10.766;2023-05-11T12:44:25;95273.19;;;15.44;73.95
13407;BME280;6774;48.208;10.766;2023-05-11T12:46:55;95275.31;;;15.53;74.00
13407;BME280;6774;48.208;10.766;2023-05-11T12:49:23;95272.06;;;15.51;75.02
13407;BME280;6774;48.208;10.766;2023-05-11T12:52:00;95266.63;;;15.64;75.19
13407;BME280;6774;48.208;10.766;2023-05-11T12:54:31;95266.31;;;15.73;75.47
13407;BME280;6774;48.208;10.766;2023-05-11T12:57:00;95266.59;;;15.83;74.92
13407;BME280;6774;48.208;10.766;2023-05-11T12:59:34;95265.56;;;15.84;74.41
13407;BME280;6774;48.208;10.766;2023-05-11T13:02:09;95267.19;;;15.85;74.37
13407;BME280;6774;48.208;10.766;2023-05-11T13:04:38;95260.09;;;15.79;73.97
13407;BME280;6774;48.208;10.766;2023-05-11T13:07:07;95259.19;;;15.85;74.20
13407;BME280;6774;48.208;10.766;2023-05-11T13:09:36;95256.53;;;15.85;73.95
13407;BME280;6774;48.208;10.766;2023-05-11T13:12:08;95258.88;;;15.93;74.53
13407;BME280;6774;48.208;10.766;2023-05-11T13:14:37;95254.63;;;16.04;75.20
13407;BME280;6774;48.208;10.766;2023-05-11T13:17:06;95244.00;;;16.15;75.30
13407;BME280;6774;48.208;10.766;2023-05-11T13:19:34;95249.88;;;16.17;74.95
13407;BME280;6774;48.208;10.766;2023-05-11T13:22:03;95247.22;;;16.17;74.88
13407;BME280;6774;48.208;10.766;2023-05-11T13:24:32;95240.63;;;16.08;75.04
13407;BME280;6774;48.208;10.766;2023-05-11T13:27:00;95236.66;;;15.99;74.74